Time;durP1;ratioP1;P1;durP2;ratioP2;P2;SDS_P1;SDS_P2;PMS_P1;PMS_P2;Temp;Humidity;BMP_temperature;BMP_pressure;BME280_temperature;BME280_humidity;BME280_pressure;Samples;Min_cycle;Max_cycle;Signal;HPM_P1;HPM_P2
2022/04/15 00:00:48;;;;;;;5.88;1.77;;;;;;;14.52;72.51;101461.91;5033406;28;20112;-53
2022/04/15 00:03:15;;;;;;;4.70;1.55;;;;;;;14.37;74.37;101456.78;5034309;28;20026;-50
2022/04/15 00:05:41;;;;;;;5.07;2.05;;;;;;;14.29;73.84;101454.34;5034486;28;20022;-50
2022/04/15 00:08:10;;;;;;;6.68;1.83;;;;;;;14.36;73.70;101455.13;5017629;28;20025;-52
2022/04/15 00:10:45;;;;;;;2.78;1.38;;;;;;;14.44;72.38;101452.19;5030958;28;20036;-52
2022/04/15 00:13:14;;;;;;;5.55;1.38;;;;;;;14.47;72.22;101451.78;5025237;28;20029;-54
2022/04/15 00:15:41;;;;;;;3.78;1.55;;;;;;;14.39;72.46;101443.13;4929579;28;2745806;-48
2022/04/15 00:18:08;;;;;;;2.78;1.67;;;;;;;14.24;73.01;101444.22;5034416;28;20112;-51
2022/04/15 00:20:34;;;;;;;7.57;2.05;;;;;;;14.13;72.67;101442.22;5028136;28;20025;-51
2022/04/15 00:23:01;;;;;;;7.13;2.05;;;;;;;14.16;73.04;101432.91;5030730;28;20538;-52
2022/04/15 00:25:27;;;;;;;5.25;2.08;;;;;;;14.14;73.16;101429.56;5027781;28;20056;-53
2022/04/15 00:27:53;;;;;;;7.80;2.65;;;;;;;14.14;74.40;101426.88;5018956;28;20084;-50
2022/04/15 00:30:21;;;;;;;5.25;2.10;;;;;;;14.05;75.48;101433.53;5022945;28;20028;-50
2022/04/15 00:32:47;;;;;;;4.97;2.03;;;;;;;14.06;74.50;101441.44;5024970;28;20464;-50
2022/04/15 00:35:13;;;;;;;4.38;1.80;;;;;;;14.10;74.10;101433.72;5029179;28;20118;-52
2022/04/15 00:37:39;;;;;;;6.00;2.38;;;;;;;14.05;74.86;101430.84;5031540;28;20029;-49
2022/04/15 00:40:09;;;;;;;6.10;2.90;;;;;;;14.10;73.91;101429.19;5033226;28;20040;-52
2022/04/15 00:42:36;;;;;;;7.65;2.63;;;;;;;14.00;74.16;101423.44;5015986;28;20041;-52
2022/04/15 00:45:02;;;;;;;7.25;2.53;;;;;;;13.85;76.15;101428.25;5032212;28;20103;-52
2022/04/15 00:47:45;;;;;;;5.40;2.22;;;;;;;13.91;75.53;101430.91;5034038;28;20480;-53
2022/04/15 00:50:12;;;;;;;9.43;3.10;;;;;;;13.96;75.50;101420.34;5013309;28;20026;-51
2022/04/15 00:52:45;;;;;;;5.53;2.72;;;;;;;13.83;76.50;101419.59;5022863;28;20117;-52
2022/04/15 00:55:13;;;;;;;6.32;3.03;;;;;;;13.93;75.95;101417.25;5033933;28;20029;-52
2022/04/15 00:57:51;;;;;;;6.18;2.40;;;;;;;13.93;75.94;101411.88;5032671;28;20357;-48
2022/04/15 01:00:19;;;;;;;6.63;2.53;;;;;;;14.00;75.50;101402.72;5025456;28;20041;-52
2022/04/15 01:02:46;;;;;;;6.10;2.40;;;;;;;13.99;76.35;101400.22;5027304;28;20504;-52
2022/04/15 01:05:14;;;;;;;10.40;2.58;;;;;;;13.93;76.82;101401.91;5022161;28;20045;-50
2022/04/15 01:07:51;;;;;;;4.75;2.17;;;;;;;13.87;76.31;101397.41;5013460;28;20030;-53
2022/04/15 01:10:19;;;;;;;6.05;2.25;;;;;;;13.89;76.18;101399.91;5024695;28;20034;-51
2022/04/15 01:12:48;;;;;;;6.32;2.65;;;;;;;13.90;76.67;101396.16;5028482;28;20030;-52
2022/04/15 01:15:15;;;;;;;4.63;1.60;;;;;;;13.78;76.91;101401.38;5033629;28;20447;-50
2022/04/15 01:17:42;;;;;;;7.90;1.92;;;;;;;13.80;77.37;101399.31;5044260;28;20449;-48
2022/04/15 01:20:11;;;;;;;4.90;1.67;;;;;;;13.71;77.03;101403.25;5041678;28;20056;-50
2022/04/15 01:22:48;;;;;;;6.55;2.28;;;;;;;13.84;76.56;101402.41;5041608;28;20022;-49
2022/04/15 01:25:16;;;;;;;8.73;1.98;;;;;;;13.65;77.57;101404.94;5033652;28;20056;-47
2022/04/15 01:27:45;;;;;;;4.88;1.80;;;;;;;13.56;77.64;101395.47;5033735;28;20036;-51
2022/04/15 01:30:17;;;;;;;4.10;1.73;;;;;;;13.44;78.31;101394.47;5021006;28;20022;-49
2022/04/15 01:32:45;;;;;;;4.68;2.30;;;;;;;13.53;77.72;101403.13;5013945;28;20465;-48
2022/04/15 01:35:12;;;;;;;5.20;2.17;;;;;;;13.39;78.54;101400.47;5015895;28;20026;-50
2022/04/15 01:37:39;;;;;;;4.90;1.92;;;;;;;13.33;78.19;101398.63;5022834;28;20084;-49
2022/04/15 01:40:08;;;;;;;4.85;1.30;;;;;;;13.39;78.71;101399.66;5037088;28;20535;-49
2022/04/15 01:42:36;;;;;;;4.55;1.52;;;;;;;13.41;79.13;101398.41;5007113;28;20475;-52
2022/04/15 01:45:04;;;;;;;2.10;1.15;;;;;;;13.34;78.96;101394.91;5013036;28;20034;-54
2022/04/15 01:47:30;;;;;;;3.05;1.30;;;;;;;13.34;79.15;101392.22;5013743;28;20017;-52
2022/04/15 01:49:56;;;;;;;3.67;1.20;;;;;;;13.37;78.77;101402.53;5025826;28;20041;-53
2022/04/15 01:52:23;;;;;;;1.95;0.90;;;;;;;13.28;79.92;101398.44;5015428;28;20481;-54
2022/04/15 01:54:49;;;;;;;3.47;1.00;;;;;;;13.23;79.98;101395.56;5021930;28;20025;-53
2022/04/15 01:57:16;;;;;;;2.90;0.90;;;;;;;13.26;79.49;101394.28;5030712;28;20055;-54
2022/04/15 01:59:43;;;;;;;2.22;1.00;;;;;;;13.26;79.66;101389.75;5019291;28;20385;-53
2022/04/15 02:02:10;;;;;;;2.30;0.75;;;;;;;13.15;79.98;101390.34;5016121;28;20033;-53
2022/04/15 02:04:36;;;;;;;1.50;1.00;;;;;;;13.06;80.47;101388.94;5031781;28;20064;-52
2022/04/15 02:07:03;;;;;;;5.72;1.10;;;;;;;13.07;80.51;101387.91;5029608;28;20083;-53
2022/04/15 02:09:29;;;;;;;4.40;0.98;;;;;;;12.97;80.23;101384.81;5017926;28;20472;-53
2022/04/15 02:11:56;;;;;;;2.50;0.80;;;;;;;12.90;80.54;101382.97;5027809;28;20080;-52
2022/04/15 02:14:22;;;;;;;1.60;0.80;;;;;;;12.92;80.74;101391.63;5030549;28;20052;-52
2022/04/15 02:16:53;;;;;;;3.15;0.82;;;;;;;12.79;81.26;101388.13;5032667;28;20030;-53
2022/04/15 02:19:23;;;;;;;1.75;0.80;;;;;;;12.91;80.61;101392.66;5032288;28;20478;-54
2022/04/15 02:21:50;;;;;;;3.50;0.95;;;;;;;13.05;80.22;101388.13;5032270;28;20113;-53
2022/04/15 02:24:16;;;;;;;3.45;1.13;;;;;;;13.07;79.65;101390.59;5032306;28;20029;-54
2022/04/15 02:26:43;;;;;;;1.67;1.00;;;;;;;13.03;80.01;101397.41;5032953;28;20029;-54
2022/04/15 02:29:10;;;;;;;1.92;0.77;;;;;;;13.02;79.97;101387.69;5019576;28;20033;-54
2022/04/15 02:31:36;;;;;;;1.35;0.50;;;;;;;12.97;79.78;101395.56;5032749;28;20030;-52
2022/04/15 02:34:03;;;;;;;4.20;0.80;;;;;;;12.95;79.71;101387.72;5032180;28;20029;-53
2022/04/15 02:36:29;;;;;;;1.48;0.73;;;;;;;12.93;79.96;101390.59;5032487;28;20108;-54
2022/04/15 02:38:55;;;;;;;1.98;0.63;;;;;;;12.94;80.04;101394.94;5031430;28;20041;-54
2022/04/15 02:41:21;;;;;;;2.67;0.50;;;;;;;12.94;79.66;101397.63;5032461;28;20213;-54
2022/04/15 02:43:48;;;;;;;0.82;0.60;;;;;;;12.94;80.03;101405.69;5032232;28;20029;-54
2022/04/15 02:46:14;;;;;;;2.17;0.57;;;;;;;13.02;80.13;101393.06;5028960;28;20108;-53
2022/04/15 02:48:41;;;;;;;1.20;0.60;;;;;;;13.06;79.38;101392.44;5024165;28;20025;-55
2022/04/15 02:51:08;;;;;;;1.02;0.50;;;;;;;13.08;79.67;101400.28;5031462;28;20357;-55
2022/04/15 02:53:34;;;;;;;1.23;0.50;;;;;;;13.18;78.41;101395.31;5024791;28;20041;-55
2022/04/15 02:56:01;;;;;;;3.13;0.57;;;;;;;13.17;78.30;101396.38;5031602;28;20130;-54
2022/04/15 02:58:27;;;;;;;1.38;0.40;;;;;;;13.16;78.54;101398.22;5031351;28;20021;-55
2022/04/15 03:00:53;;;;;;;0.95;0.60;;;;;;;13.14;78.38;101402.16;5031345;28;20025;-55
2022/04/15 03:03:19;;;;;;;0.73;0.45;;;;;;;13.27;77.58;101404.88;5025500;28;20033;-55
2022/04/15 03:05:46;;;;;;;0.38;0.38;;;;;;;13.15;78.51;101409.16;5012919;28;20036;-54
2022/04/15 03:08:12;;;;;;;1.10;0.60;;;;;;;13.16;78.89;101410.84;5031557;28;20045;-55
2022/04/15 03:10:38;;;;;;;1.30;0.68;;;;;;;13.18;78.25;101411.44;5019468;28;20026;-55
2022/04/15 03:13:04;;;;;;;0.50;0.50;;;;;;;13.24;78.24;101416.03;5011816;28;20500;-54
2022/04/15 03:15:31;;;;;;;1.08;0.77;;;;;;;13.32;77.56;101415.78;5011059;28;20433;-55
2022/04/15 03:17:57;;;;;;;1.35;0.50;;;;;;;13.07;78.51;101410.22;5011763;28;20306;-54
2022/04/15 03:20:23;;;;;;;1.52;0.98;;;;;;;13.16;78.40;101413.53;5013844;28;20038;-55
2022/04/15 03:22:49;;;;;;;1.55;0.50;;;;;;;13.13;78.24;101414.75;5019669;28;20469;-55
2022/04/15 03:25:17;;;;;;;0.63;0.47;;;;;;;13.09;78.60;101410.81;5011479;28;20028;-55
2022/04/15 03:27:44;;;;;;;1.33;0.60;;;;;;;12.95;79.19;101412.72;5011010;28;20029;-55
2022/04/15 03:30:11;;;;;;;0.65;0.32;;;;;;;12.95;79.01;101414.59;5011154;28;20042;-55
2022/04/15 03:32:48;;;;;;;0.45;0.38;;;;;;;13.03;78.83;101417.03;4993611;28;20060;-55
2022/04/15 03:35:16;;;;;;;0.60;0.60;;;;;;;12.79;79.84;101412.31;5011670;28;20026;-54
2022/04/15 03:37:43;;;;;;;0.55;0.40;;;;;;;12.87;79.53;101406.72;5015674;28;20032;-54
2022/04/15 03:40:09;;;;;;;1.92;0.50;;;;;;;12.92;79.37;101413.13;5031166;28;20043;-55
2022/04/15 03:42:50;;;;;;;0.95;0.52;;;;;;;12.89;79.13;101404.66;5019396;28;20076;-55
2022/04/15 03:45:22;;;;;;;0.85;0.60;;;;;;;12.82;79.81;101410.00;5031214;28;20022;-55
2022/04/15 03:47:50;;;;;;;1.08;0.50;;;;;;;12.90;79.31;101412.50;5031138;28;20026;-55
2022/04/15 03:50:16;;;;;;;0.50;0.40;;;;;;;12.91;78.65;101419.53;5031120;28;20060;-55
2022/04/15 03:52:46;;;;;;;2.65;0.93;;;;;;;12.87;79.37;101425.53;5031351;28;20040;-55
2022/04/15 03:55:17;;;;;;;0.93;0.55;;;;;;;12.87;79.48;101415.59;5030923;28;20529;-54
2022/04/15 03:57:44;;;;;;;2.13;0.80;;;;;;;13.00;79.40;101424.72;5013794;28;20050;-55
2022/04/15 04:00:13;;;;;;;0.98;0.60;;;;;;;12.85;79.99;101425.72;5030906;28;20029;-55
2022/04/15 04:02:42;;;;;;;0.90;0.75;;;;;;;13.03;79.53;101425.09;5031220;28;20025;-55
2022/04/15 04:05:08;;;;;;;1.33;0.75;;;;;;;12.89;79.90;101426.97;5031515;28;20028;-55
2022/04/15 04:07:35;;;;;;;1.38;0.60;;;;;;;13.11;78.56;101432.16;5030949;28;20108;-55
2022/04/15 04:10:01;;;;;;;3.10;0.80;;;;;;;12.89;79.52;101434.22;5030791;28;20091;-55
2022/04/15 04:12:33;;;;;;;1.23;0.82;;;;;;;13.03;78.31;101438.53;5031082;28;20034;-55
2022/04/15 04:15:01;;;;;;;0.95;0.70;;;;;;;13.04;77.88;101439.38;5027401;28;20049;-55
2022/04/15 04:17:27;;;;;;;0.70;0.68;;;;;;;13.15;77.45;101436.03;5024905;28;20025;-55
2022/04/15 04:19:53;;;;;;;2.42;0.98;;;;;;;13.08;78.14;101449.50;5030743;28;20036;-55
2022/04/15 04:22:19;;;;;;;2.25;1.13;;;;;;;13.07;78.18;101447.84;5028102;28;20056;-55
2022/04/15 04:24:46;;;;;;;1.98;1.20;;;;;;;13.05;78.36;101451.78;5031013;28;20022;-55
2022/04/15 04:27:12;;;;;;;1.95;0.93;;;;;;;13.13;77.71;101456.94;5032567;28;20021;-55
2022/04/15 04:29:39;;;;;;;1.80;1.05;;;;;;;13.16;77.26;101459.22;5033922;28;20108;-55
2022/04/15 04:32:05;;;;;;;1.73;1.10;;;;;;;13.05;78.10;101459.84;5034361;28;20049;-55
2022/04/15 04:34:33;;;;;;;3.28;1.60;;;;;;;13.05;78.04;101462.53;5031981;28;20061;-54
2022/04/15 04:36:59;;;;;;;1.35;1.20;;;;;;;12.98;78.04;101456.31;5034117;28;20041;-55
2022/04/15 04:39:27;;;;;;;4.53;1.48;;;;;;;13.00;78.06;101459.66;5033833;28;20109;-55
2022/04/15 04:41:53;;;;;;;2.22;1.60;;;;;;;13.08;78.44;101464.81;5033563;28;20036;-55
2022/04/15 04:44:20;;;;;;;3.58;1.77;;;;;;;13.17;77.03;101463.56;5021198;28;20038;-55
2022/04/15 04:46:46;;;;;;;3.78;2.30;;;;;;;13.11;77.98;101472.47;5027322;28;20029;-55
2022/04/15 04:49:13;;;;;;;2.20;1.63;;;;;;;13.15;76.71;101469.13;5033572;28;20079;-55
2022/04/15 04:51:39;;;;;;;3.47;2.28;;;;;;;13.14;76.98;101469.34;5034116;28;20448;-55
2022/04/15 04:54:06;;;;;;;4.30;2.22;;;;;;;13.09;77.47;101469.97;5033912;28;20039;-55
2022/04/15 04:56:32;;;;;;;4.65;2.13;;;;;;;12.90;78.80;101474.31;5034094;28;20503;-55
2022/04/15 04:58:58;;;;;;;2.88;2.03;;;;;;;13.09;77.62;101480.72;5033318;28;20029;-55
2022/04/15 05:01:24;;;;;;;4.65;2.17;;;;;;;13.07;78.08;101477.41;5013908;28;20045;-55
2022/04/15 05:03:51;;;;;;;3.00;1.80;;;;;;;13.12;77.50;101484.84;5027402;28;20472;-55
2022/04/15 05:06:17;;;;;;;3.95;1.73;;;;;;;13.02;77.67;101489.81;5033790;28;20040;-55
2022/04/15 05:08:43;;;;;;;2.08;1.55;;;;;;;13.14;77.84;101491.66;5034008;28;20037;-55
2022/04/15 05:11:09;;;;;;;3.20;1.30;;;;;;;13.11;77.51;101488.59;5033543;28;20026;-54
2022/04/15 05:13:35;;;;;;;3.13;1.42;;;;;;;13.25;77.87;101495.63;5033191;28;20095;-55
2022/04/15 05:16:05;;;;;;;2.75;1.55;;;;;;;13.18;77.63;101487.53;5033544;28;20378;-55
2022/04/15 05:18:31;;;;;;;4.80;1.95;;;;;;;13.10;77.55;101493.13;5033204;28;20026;-55
2022/04/15 05:20:57;;;;;;;4.28;1.92;;;;;;;12.85;79.24;101474.09;5033080;28;20025;-55
2022/04/15 05:23:23;;;;;;;3.58;2.00;;;;;;;12.74;79.48;101492.69;5033516;28;20025;-55
2022/04/15 05:25:50;;;;;;;4.40;2.08;;;;;;;12.83;79.00;101494.97;5033556;28;20127;-55
2022/04/15 05:28:16;;;;;;;3.42;1.95;;;;;;;12.93;77.58;101490.00;5032921;28;20127;-55
2022/04/15 05:30:42;;;;;;;4.82;2.42;;;;;;;12.98;77.61;101485.88;5033388;28;20025;-55
2022/04/15 05:33:08;;;;;;;4.05;3.03;;;;;;;12.89;78.43;101491.47;5033372;28;20096;-56
2022/04/15 05:35:35;;;;;;;7.00;3.13;;;;;;;12.90;77.83;101487.75;5032568;28;20022;-55
2022/04/15 05:38:02;;;;;;;4.63;2.90;;;;;;;12.83;78.57;101489.59;5026977;28;20026;-55
2022/04/15 05:40:28;;;;;;;4.38;2.90;;;;;;;12.76;78.80;101499.50;5032978;28;20388;-55
2022/04/15 05:42:55;;;;;;;5.60;3.05;;;;;;;12.68;79.38;101489.78;5032516;28;20029;-55
2022/04/15 05:45:21;;;;;;;4.10;3.05;;;;;;;12.77;79.03;101498.47;5033115;28;20060;-55
2022/04/15 05:47:47;;;;;;;6.05;2.83;;;;;;;12.74;79.03;101498.88;5033076;28;20207;-55
2022/04/15 05:50:14;;;;;;;6.00;3.65;;;;;;;12.76;78.92;101491.44;5032893;28;20104;-55
2022/04/15 05:52:40;;;;;;;5.70;2.83;;;;;;;12.75;79.12;101494.34;5032710;28;20124;-56
2022/04/15 05:55:06;;;;;;;4.25;2.13;;;;;;;12.75;77.99;101497.84;5032525;28;20388;-55
2022/04/15 05:57:33;;;;;;;2.47;1.70;;;;;;;12.81;78.24;101493.50;5032419;28;20025;-55
2022/04/15 05:59:59;;;;;;;6.50;2.10;;;;;;;12.82;78.28;101493.28;5032863;28;20471;-56
2022/04/15 06:02:25;;;;;;;4.10;2.15;;;;;;;12.82;78.54;101500.53;5032395;28;20029;-55
2022/04/15 06:04:51;;;;;;;3.75;2.30;;;;;;;12.87;78.16;101488.13;5032713;28;20021;-55
2022/04/15 06:07:17;;;;;;;4.03;2.10;;;;;;;12.84;78.12;101488.56;5032506;28;20029;-55
2022/04/15 06:09:44;;;;;;;3.40;1.80;;;;;;;12.93;77.00;101484.63;5032194;28;20388;-56
2022/04/15 06:12:10;;;;;;;2.72;1.98;;;;;;;12.89;77.43;101483.41;5031988;28;20021;-56
2022/04/15 06:14:36;;;;;;;2.70;1.70;;;;;;;12.90;77.35;101487.75;5032308;28;20041;-56
2022/04/15 06:17:03;;;;;;;2.50;1.35;;;;;;;12.78;77.69;101478.66;5032627;28;20055;-56
2022/04/15 06:19:29;;;;;;;2.53;1.50;;;;;;;12.80;77.80;101486.50;5031970;28;20061;-55
2022/04/15 06:21:55;;;;;;;1.67;1.58;;;;;;;12.79;77.61;101479.47;5032452;28;20025;-56
2022/04/15 06:24:22;;;;;;;2.15;1.90;;;;;;;12.69;78.06;101482.53;5032124;28;20023;-55
2022/04/15 06:26:50;;;;;;;2.38;1.77;;;;;;;12.79;77.44;101479.47;5032338;28;20025;-56
2022/04/15 06:29:16;;;;;;;2.38;1.45;;;;;;;12.88;77.07;101487.13;5031609;28;20029;-56
2022/04/15 06:31:43;;;;;;;2.05;1.58;;;;;;;12.83;76.78;101486.09;5032193;28;20339;-55
2022/04/15 06:34:09;;;;;;;1.63;1.17;;;;;;;12.86;76.94;101491.88;5032921;28;20450;-56
2022/04/15 06:36:35;;;;;;;1.60;1.08;;;;;;;12.81;76.75;101494.34;5023693;28;20021;-56
2022/04/15 06:39:02;;;;;;;1.20;0.90;;;;;;;12.89;76.34;101493.34;5012416;28;20064;-55
2022/04/15 06:41:28;;;;;;;1.42;1.00;;;;;;;12.81;76.15;101499.72;5018720;28;20064;-56
2022/04/15 06:43:54;;;;;;;1.80;0.90;;;;;;;12.72;76.11;101505.50;5032414;28;20025;-55
2022/04/15 06:46:20;;;;;;;1.80;0.80;;;;;;;12.55;77.63;101508.56;5032133;28;20876;-55
2022/04/15 06:48:47;;;;;;;1.48;1.13;;;;;;;12.57;77.26;101506.50;5015827;28;20033;-55
2022/04/15 06:51:13;;;;;;;1.33;1.08;;;;;;;12.45;77.28;101508.13;5011786;28;20324;-56
2022/04/15 06:53:39;;;;;;;1.17;1.00;;;;;;;12.48;77.31;101505.00;5010114;28;20355;-56
2022/04/15 06:56:06;;;;;;;1.08;0.98;;;;;;;12.45;77.12;101504.59;5011532;28;20034;-56
2022/04/15 06:58:32;;;;;;;1.30;0.95;;;;;;;12.53;77.04;101512.47;5011508;28;20057;-55
2022/04/15 07:00:58;;;;;;;1.38;0.98;;;;;;;12.48;77.07;101512.25;5012235;28;20033;-55
2022/04/15 07:03:25;;;;;;;1.10;0.70;;;;;;;12.51;76.50;101507.31;5029795;28;20049;-56
2022/04/15 07:05:51;;;;;;;3.13;1.20;;;;;;;12.21;77.32;101512.13;5031649;28;20389;-55
2022/04/15 07:08:17;;;;;;;2.72;1.20;;;;;;;12.29;77.32;101503.09;5031310;28;20206;-56
2022/04/15 07:10:44;;;;;;;4.25;1.30;;;;;;;12.11;77.39;101504.47;5026456;28;20022;-55
2022/04/15 07:13:12;;;;;;;2.63;1.10;;;;;;;12.23;76.78;101507.41;5012366;28;20393;-55
2022/04/15 07:15:38;;;;;;;6.13;1.75;;;;;;;12.27;76.18;101497.94;5009564;28;20486;-55
2022/04/15 07:18:05;;;;;;;5.72;0.95;;;;;;;12.04;76.31;101502.78;5009873;28;20426;-56
2022/04/15 07:20:31;;;;;;;5.65;1.30;;;;;;;12.04;75.99;101497.41;5030012;28;20160;-55
2022/04/15 07:23:02;;;;;;;2.72;0.90;;;;;;;12.10;75.38;101513.56;5011823;28;20095;-55
2022/04/15 07:25:28;;;;;;;2.25;1.20;;;;;;;12.04;74.32;101516.19;5011856;28;20018;-56
2022/04/15 07:27:55;;;;;;;6.85;1.30;;;;;;;12.03;74.06;101527.97;5011390;28;20116;-55
2022/04/15 07:30:22;;;;;;;9.43;1.60;;;;;;;11.74;74.79;101524.47;5011390;28;20038;-55
2022/04/15 07:32:49;;;;;;;9.77;1.45;;;;;;;11.69;75.37;101537.63;5011309;28;20114;-55
2022/04/15 07:35:15;;;;;;;6.63;1.30;;;;;;;11.55;75.54;101541.25;5012207;28;20104;-55
2022/04/15 07:37:41;;;;;;;9.63;1.45;;;;;;;11.48;75.58;101541.19;5030669;28;20544;-56
2022/04/15 07:40:08;;;;;;;2.22;0.93;;;;;;;11.49;75.34;101540.19;5031107;28;20033;-55
2022/04/15 07:42:34;;;;;;;3.28;1.23;;;;;;;11.56;74.95;101541.06;5031369;28;20032;-56
2022/04/15 07:45:00;;;;;;;7.47;1.40;;;;;;;11.61;73.93;101538.63;5031211;28;20013;-55
2022/04/15 07:47:26;;;;;;;9.90;1.63;;;;;;;11.59;73.85;101542.50;5031201;28;20484;-56
2022/04/15 07:49:53;;;;;;;4.65;1.20;;;;;;;11.60;73.56;101544.16;5031239;28;20530;-55
2022/04/15 07:52:19;;;;;;;6.57;1.80;;;;;;;11.36;74.72;101543.56;5030725;28;20469;-55
2022/04/15 07:54:46;;;;;;;6.05;1.35;;;;;;;11.64;73.06;101545.44;5030932;28;20026;-55
2022/04/15 07:57:12;;;;;;;5.70;1.30;;;;;;;11.62;73.53;101547.50;5031512;28;20021;-55
2022/04/15 07:59:38;;;;;;;5.93;1.15;;;;;;;11.50;73.52;101549.88;5030507;28;20029;-55
2022/04/15 08:02:06;;;;;;;9.88;1.80;;;;;;;11.48;73.51;101551.09;5018630;28;20033;-55
2022/04/15 08:04:36;;;;;;;4.35;1.63;;;;;;;11.58;73.26;101540.84;5018969;28;20030;-55
2022/04/15 08:07:03;;;;;;;14.95;1.80;;;;;;;11.67;72.72;101545.06;5018500;28;20041;-55
2022/04/15 08:09:29;;;;;;;9.00;1.73;;;;;;;11.18;74.31;101551.25;5017234;28;20026;-55
2022/04/15 08:11:56;;;;;;;9.45;2.03;;;;;;;11.36;73.93;101548.09;5034937;28;20030;-55
2022/04/15 08:14:22;;;;;;;5.03;1.52;;;;;;;11.38;73.91;101546.06;5034512;28;20060;-56
2022/04/15 08:16:48;;;;;;;8.10;1.75;;;;;;;11.25;74.91;101552.13;5034706;28;20361;-55
2022/04/15 08:19:14;;;;;;;9.52;1.88;;;;;;;11.47;74.06;101557.47;5030933;28;20033;-55
2022/04/15 08:21:40;;;;;;;8.73;1.70;;;;;;;11.57;73.34;101555.28;5014846;28;20030;-55
2022/04/15 08:24:08;;;;;;;6.97;1.70;;;;;;;11.64;73.99;101561.53;5014731;28;20117;-55
2022/04/15 08:26:34;;;;;;;4.97;1.48;;;;;;;11.67;73.92;101563.81;5017552;28;20087;-56
2022/04/15 08:29:01;;;;;;;5.13;1.13;;;;;;;11.88;73.08;101563.81;5033170;28;20107;-55
2022/04/15 08:31:27;;;;;;;5.45;2.10;;;;;;;11.59;72.96;101574.69;5026021;28;20026;-56
2022/04/15 08:33:53;;;;;;;6.53;1.70;;;;;;;11.43;73.84;101574.97;5027908;28;20601;-56
2022/04/15 08:36:20;;;;;;;7.90;2.00;;;;;;;11.41;73.65;101571.66;5013535;28;20042;-55
2022/04/15 08:38:46;;;;;;;8.20;2.20;;;;;;;11.32;73.32;101568.28;5014322;28;20042;-55
2022/04/15 08:41:14;;;;;;;5.18;1.73;;;;;;;11.21;73.87;101576.84;5014347;28;20034;-55
2022/04/15 08:43:42;;;;;;;6.53;1.92;;;;;;;11.10;74.61;101575.50;5019293;28;20038;-55
2022/04/15 08:46:09;;;;;;;6.97;1.90;;;;;;;11.13;74.97;101566.25;5032281;28;20380;-56
2022/04/15 08:48:37;;;;;;;10.32;1.75;;;;;;;10.98;74.58;101569.81;5029871;28;20022;-55
2022/04/15 08:51:04;;;;;;;5.38;1.70;;;;;;;11.03;74.37;101575.44;5014368;28;20103;-56
2022/04/15 08:53:31;;;;;;;7.18;1.75;;;;;;;11.07;73.34;101573.22;5014861;28;20030;-56
2022/04/15 08:55:58;;;;;;;3.35;1.20;;;;;;;11.07;72.68;101570.53;5013933;28;20477;-55
2022/04/15 08:58:27;;;;;;;5.85;1.10;;;;;;;11.02;70.27;101570.28;5027610;28;20041;-55
2022/04/15 09:00:54;;;;;;;3.17;1.20;;;;;;;10.89;66.26;101568.31;5033496;28;20029;-56
2022/04/15 09:03:20;;;;;;;2.63;1.02;;;;;;;10.78;65.30;101568.81;5033764;28;20036;-56
2022/04/15 09:05:54;;;;;;;3.13;1.15;;;;;;;10.57;65.73;101569.59;5028784;28;20168;-55
2022/04/15 09:08:20;;;;;;;5.53;1.20;;;;;;;10.68;66.49;101573.63;5028997;28;20110;-55
2022/04/15 09:10:56;;;;;;;10.13;1.30;;;;;;;10.85;66.93;101569.69;5015900;28;20033;-56
2022/04/15 09:13:28;;;;;;;5.05;1.10;;;;;;;11.03;65.78;101563.88;5033022;28;20094;-56
2022/04/15 09:15:55;;;;;;;5.45;1.00;;;;;;;11.01;63.80;101564.09;5023858;28;20064;-55
2022/04/15 09:18:35;;;;;;;2.72;0.70;;;;;;;10.92;64.40;101562.53;5019701;28;20034;-56
2022/04/15 09:21:21;;;;;;;2.35;0.90;;;;;;;10.71;64.85;101560.66;5013550;28;20030;-56
2022/04/15 09:23:49;;;;;;;1.55;0.75;;;;;;;11.06;65.36;101563.53;5013459;28;20076;-56
2022/04/15 09:26:16;;;;;;;4.50;0.90;;;;;;;11.17;64.87;101559.50;5032766;28;20025;-55
2022/04/15 09:28:42;;;;;;;3.22;1.05;;;;;;;11.25;63.41;101560.19;5020222;28;20497;-56
2022/04/15 09:31:16;;;;;;;3.75;0.90;;;;;;;11.23;64.74;101559.56;5017002;28;20064;-56
2022/04/15 09:33:59;;;;;;;2.38;1.10;;;;;;;11.36;66.58;101559.66;5011419;28;20453;-56
2022/04/15 09:36:28;;;;;;;3.55;0.90;;;;;;;11.31;67.42;101556.72;5031346;28;20033;-56
2022/04/15 09:39:11;;;;;;;1.42;0.80;;;;;;;11.31;67.38;101551.38;5032302;28;20044;-56
2022/04/15 09:41:40;;;;;;;6.93;1.20;;;;;;;11.37;67.08;101550.59;5027222;28;20444;-56
2022/04/15 09:44:10;;;;;;;5.03;0.88;;;;;;;11.43;67.31;101556.19;5017503;28;20029;-56
2022/04/15 09:46:36;;;;;;;4.22;0.93;;;;;;;11.64;65.91;101543.56;5013414;28;20033;-56
2022/04/15 09:49:10;;;;;;;4.47;1.10;;;;;;;11.55;64.34;101541.25;5015903;28;20161;-56
2022/04/15 09:51:51;;;;;;;5.28;1.00;;;;;;;11.54;65.09;101539.59;5031155;28;20386;-56
2022/04/15 09:54:24;;;;;;;4.13;0.95;;;;;;;11.51;65.08;101540.00;5031682;28;20045;-56
2022/04/15 09:56:59;;;;;;;3.72;1.17;;;;;;;11.63;62.54;101541.94;5032786;28;20053;-56
2022/04/15 09:59:28;;;;;;;3.08;0.88;;;;;;;11.57;63.41;101541.88;5032270;28;20044;-56
2022/04/15 10:02:11;;;;;;;4.50;1.20;;;;;;;11.52;63.38;101542.47;5015253;28;20030;-55
2022/04/15 10:04:38;;;;;;;4.05;1.00;;;;;;;11.57;63.67;101556.13;5012681;28;20091;-56
2022/04/15 10:07:07;;;;;;;3.22;1.00;;;;;;;11.43;64.16;101556.19;5012222;28;20093;-55
2022/04/15 10:09:38;;;;;;;4.93;1.25;;;;;;;11.46;63.15;101558.50;5022293;28;20082;-56
2022/04/15 10:12:06;;;;;;;2.95;0.98;;;;;;;11.40;62.66;101554.75;5032837;28;20112;-55
2022/04/15 10:14:33;;;;;;;2.97;0.98;;;;;;;11.35;61.47;101551.81;5032602;28;20042;-56
2022/04/15 10:17:00;;;;;;;3.13;0.75;;;;;;;11.23;61.62;101548.84;5032206;28;20036;-56
2022/04/15 10:19:27;;;;;;;6.15;1.10;;;;;;;11.27;60.54;101547.44;5017842;28;20463;-56
2022/04/15 10:21:53;;;;;;;4.30;1.13;;;;;;;11.10;60.55;101543.34;5014843;28;20022;-56
2022/04/15 10:24:24;;;;;;;5.03;1.10;;;;;;;11.03;60.91;101554.00;5017864;28;20481;-55
2022/04/15 10:26:58;;;;;;;3.42;1.20;;;;;;;10.97;61.38;101545.91;5026789;28;20033;-56
2022/04/15 10:29:24;;;;;;;2.58;1.00;;;;;;;10.87;62.25;101542.72;5031209;28;20064;-56
2022/04/15 10:31:52;;;;;;;3.90;1.33;;;;;;;10.88;62.91;101547.88;5032196;28;20373;-55
2022/04/15 10:34:21;;;;;;;4.82;1.00;;;;;;;10.78;63.12;101550.88;5031088;28;20044;-56
2022/04/15 10:36:52;;;;;;;3.22;0.88;;;;;;;10.74;63.30;101543.41;5030720;28;20490;-55
2022/04/15 10:39:21;;;;;;;6.90;1.20;;;;;;;10.66;63.40;101547.03;5031695;28;20037;-56
2022/04/15 10:41:53;;;;;;;3.05;1.20;;;;;;;10.59;63.53;101546.13;5031086;28;20116;-56
2022/04/15 10:44:39;;;;;;;4.18;1.23;;;;;;;10.58;63.99;101556.00;5032352;28;20139;-56
2022/04/15 10:47:10;;;;;;;;;;;;;;;10.57;63.92;101569.59;5031040;28;20021;-56
2022/04/15 10:49:39;;;;;;;2.05;1.20;;;;;;;10.45;64.01;101561.22;5031846;28;19920;-56
2022/04/15 10:52:24;;;;;;;2.53;1.20;;;;;;;10.39;64.07;101561.97;5030630;28;20029;-56
2022/04/15 10:55:13;;;;;;;4.22;1.27;;;;;;;10.35;64.58;101567.88;5031778;28;20109;-56
2022/04/15 10:57:41;;;;;;;2.15;0.90;;;;;;;10.22;64.82;101558.63;5013944;28;20036;-56
2022/04/15 11:03:02;;;;;;;4.50;1.13;;;;;;;10.12;65.39;101544.72;5010765;28;20036;-56
2022/04/15 11:05:49;;;;;;;2.08;1.25;;;;;;;10.14;65.50;101556.03;5012866;28;20033;-56
2022/04/15 11:08:22;;;;;;;5.18;1.13;;;;;;;10.02;65.86;101557.53;5001922;28;20050;-56
2022/04/15 11:11:07;;;;;;;6.20;1.27;;;;;;;10.02;65.86;101562.88;5026114;28;20025;-56
2022/04/15 11:13:45;;;;;;;3.05;1.20;;;;;;;9.93;65.95;101558.63;5012654;28;20558;-55
2022/04/15 11:16:13;;;;;;;2.90;1.42;;;;;;;9.84;66.54;101560.56;5018114;28;20033;-57
2022/04/15 11:18:55;;;;;;;7.45;1.60;;;;;;;9.82;66.44;101567.09;5031069;28;20021;-56
2022/04/15 11:21:29;;;;;;;2.83;1.55;;;;;;;9.79;66.68;101562.97;5031559;28;20056;-56
2022/04/15 11:23:58;;;;;;;3.72;1.05;;;;;;;9.72;66.73;101570.88;5030833;28;20381;-56
2022/04/15 11:26:26;;;;;;;8.52;1.42;;;;;;;9.63;67.24;101566.63;5013960;28;20058;-56
2022/04/15 11:28:53;;;;;;;5.45;1.17;;;;;;;9.61;67.35;101566.00;5022470;28;20025;-56
2022/04/15 11:31:24;;;;;;;4.40;1.17;;;;;;;9.55;67.67;101561.38;5031443;28;20064;-56
2022/04/15 11:33:51;;;;;;;5.70;1.40;;;;;;;9.65;67.39;101555.75;5031151;28;20025;-56